createdAt,value
2023-01-03T00:02:21.279Z,0.80
2023-01-03T00:04:49.895Z,0.50
2023-01-03T00:07:33.544Z,0.38
2023-01-03T00:10:07.492Z,0.40
2023-01-03T00:12:35.006Z,0.30
2023-01-03T00:15:01.960Z,0.50
2023-01-03T00:17:28.862Z,0.50
2023-01-03T00:19:55.542Z,0.50
2023-01-03T00:22:22.185Z,0.50
2023-01-03T00:24:49.437Z,0.50
2023-01-03T00:27:16.670Z,0.38
2023-01-03T00:29:43.621Z,0.47
2023-01-03T00:32:13.094Z,0.32
2023-01-03T00:34:40.028Z,0.47
2023-01-03T00:37:06.679Z,0.35
2023-01-03T00:39:34.127Z,0.50
2023-01-03T00:42:01.131Z,0.40
2023-01-03T00:44:27.950Z,0.47
2023-01-03T00:46:54.588Z,0.30
2023-01-03T00:49:21.432Z,0.40
2023-01-03T00:51:48.113Z,0.30
2023-01-03T00:54:15.692Z,0.40
2023-01-03T00:56:44.966Z,0.40
2023-01-03T00:59:12.830Z,0.40
2023-01-03T01:01:47.152Z,0.40
2023-01-03T01:04:24.212Z,0.50
2023-01-03T01:06:53.289Z,0.40
2023-01-03T01:09:23.232Z,0.40
2023-01-03T01:11:50.980Z,0.40
2023-01-03T01:14:20.935Z,0.40
2023-01-03T01:16:53.651Z,0.50
2023-01-03T01:19:24.500Z,0.40
2023-01-03T01:21:51.376Z,0.40
2023-01-03T01:24:18.502Z,0.50
2023-01-03T01:26:46.237Z,0.60
2023-01-03T01:29:14.200Z,0.50
2023-01-03T01:31:41.463Z,0.50
2023-01-03T01:34:08.486Z,0.50
2023-01-03T01:36:41.923Z,0.50
2023-01-03T01:39:12.727Z,0.57
2023-01-03T01:41:59.350Z,0.57
2023-01-03T01:44:53.789Z,0.40
2023-01-03T01:47:39.688Z,0.60
2023-01-03T01:50:48.490Z,0.50
2023-01-03T01:53:28.079Z,0.60
2023-01-03T01:56:06.816Z,0.63
2023-01-03T01:58:37.324Z,0.52
2023-01-03T02:01:08.187Z,0.63
2023-01-03T02:06:05.225Z,0.77
2023-01-03T02:08:31.888Z,0.63
2023-01-03T02:11:07.383Z,0.90
2023-01-03T02:13:44.415Z,0.60
2023-01-03T02:16:25.879Z,0.80
2023-01-03T02:19:02.593Z,0.75
2023-01-03T02:21:49.657Z,0.80
2023-01-03T02:24:31.451Z,0.70
2023-01-03T02:27:28.155Z,0.68
2023-01-03T02:30:31.211Z,1.05
2023-01-03T02:33:29.808Z,0.90
2023-01-03T02:36:20.375Z,0.90
2023-01-03T02:38:59.387Z,0.80
2023-01-03T02:41:46.303Z,0.77
2023-01-03T02:44:28.009Z,1.05
2023-01-03T02:47:03.050Z,0.90
2023-01-03T02:49:36.650Z,0.90
2023-01-03T02:52:10.366Z,0.70
2023-01-03T02:54:54.490Z,0.60
2023-01-03T02:57:28.522Z,0.80
2023-01-03T03:00:00.970Z,0.90
2023-01-03T03:02:32.710Z,0.80
2023-01-03T03:05:02.286Z,0.52
2023-01-03T03:07:34.256Z,1.08
2023-01-03T03:10:19.519Z,0.77
2023-01-03T03:13:08.449Z,0.90
2023-01-03T03:16:01.456Z,1.00
2023-01-03T03:18:50.797Z,1.20
2023-01-03T03:21:39.023Z,0.90
2023-01-03T03:24:35.968Z,1.08
2023-01-03T03:27:27.798Z,0.80
2023-01-03T03:29:57.775Z,0.70
2023-01-03T03:32:26.877Z,1.02
2023-01-03T03:34:56.206Z,0.73
2023-01-03T03:37:26.944Z,0.80
2023-01-03T03:40:13.463Z,0.85
2023-01-03T03:43:07.198Z,1.10
2023-01-03T03:46:02.631Z,0.90
2023-01-03T03:48:56.273Z,0.90
2023-01-03T03:51:25.236Z,1.17
2023-01-03T03:53:54.006Z,1.00
2023-01-03T03:56:28.264Z,0.90
2023-01-03T03:59:00.691Z,1.10
2023-01-03T04:01:28.977Z,1.05
2023-01-03T04:04:02.222Z,0.90
2023-01-03T04:06:43.485Z,1.13
2023-01-03T04:09:11.513Z,1.13
2023-01-03T04:11:38.167Z,1.13
2023-01-03T04:14:04.786Z,1.10
2023-01-03T04:16:31.468Z,1.15
2023-01-03T04:18:58.139Z,1.20
2023-01-03T04:21:25.212Z,0.80
2023-01-03T04:23:51.932Z,1.02
2023-01-03T04:26:18.621Z,1.10
2023-01-03T04:28:45.281Z,1.10
2023-01-03T04:31:11.962Z,1.35
2023-01-03T04:33:38.635Z,1.40
2023-01-03T04:36:05.582Z,1.13
2023-01-03T04:38:32.290Z,1.40
2023-01-03T04:41:09.151Z,1.30
2023-01-03T04:43:54.523Z,1.10
2023-01-03T04:46:22.250Z,1.20
2023-01-03T04:48:48.960Z,1.40
2023-01-03T04:51:15.616Z,1.08
2023-01-03T04:53:42.282Z,1.48
2023-01-03T04:56:09.046Z,1.70
2023-01-03T04:58:35.723Z,1.45
2023-01-03T05:01:04.385Z,1.80
2023-01-03T05:03:31.121Z,1.38
2023-01-03T05:06:05.425Z,1.17
2023-01-03T05:08:32.370Z,1.30
2023-01-03T05:10:59.185Z,1.33
2023-01-03T05:13:26.040Z,1.20
2023-01-03T05:15:52.680Z,1.05
2023-01-03T05:18:19.517Z,1.20
2023-01-03T05:21:05.618Z,1.00
2023-01-03T05:23:51.022Z,1.65
2023-01-03T05:26:20.517Z,1.15
2023-01-03T05:28:52.395Z,1.45
2023-01-03T05:31:20.149Z,1.33
2023-01-03T05:33:47.145Z,1.27
2023-01-03T05:36:15.500Z,1.77
2023-01-03T05:38:42.967Z,1.38
2023-01-03T05:41:10.062Z,1.60
2023-01-03T05:43:36.842Z,1.80
2023-01-03T05:46:03.572Z,2.00
2023-01-03T05:48:38.402Z,1.52
2023-01-03T05:51:05.152Z,2.00
2023-01-03T05:53:31.770Z,1.80
2023-01-03T05:56:03.557Z,2.05
2023-01-03T05:58:30.165Z,1.75
2023-01-03T06:00:56.783Z,1.88
2023-01-03T06:03:23.726Z,1.90
2023-01-03T06:05:50.716Z,1.58
2023-01-03T06:08:17.687Z,1.67
2023-01-03T06:10:44.368Z,1.63
2023-01-03T06:13:11.403Z,2.00
2023-01-03T06:15:38.046Z,1.63
2023-01-03T06:18:04.682Z,1.50
2023-01-03T06:20:31.328Z,1.63
2023-01-03T06:22:58.423Z,2.10
2023-01-03T06:25:25.303Z,1.60
2023-01-03T06:27:51.969Z,1.70
2023-01-03T06:30:19.085Z,1.92
2023-01-03T06:32:46.047Z,2.00
2023-01-03T06:35:12.876Z,1.63
2023-01-03T06:37:39.567Z,2.03
2023-01-03T06:40:07.280Z,1.88
2023-01-03T06:42:43.021Z,2.35
2023-01-03T06:45:30.678Z,2.45
2023-01-03T06:48:16.796Z,2.22
2023-01-03T06:51:02.714Z,2.33
2023-01-03T06:53:38.359Z,3.22
2023-01-03T06:56:06.088Z,2.53
2023-01-03T06:58:32.909Z,2.22
2023-01-03T07:01:03.822Z,2.00
2023-01-03T07:03:31.653Z,2.40
2023-01-03T07:05:58.287Z,3.28
2023-01-03T07:08:24.961Z,2.60
2023-01-03T07:10:51.569Z,3.05
2023-01-03T07:13:36.993Z,3.03
2023-01-03T07:16:03.781Z,3.08
2023-01-03T07:18:31.752Z,2.78
2023-01-03T07:20:58.392Z,3.45
2023-01-03T07:23:25.034Z,2.95
2023-01-03T07:25:55.480Z,3.08
2023-01-03T07:28:22.171Z,2.80
2023-01-03T07:30:48.890Z,2.80
2023-01-03T07:33:17.825Z,2.72
2023-01-03T07:35:45.081Z,2.90
2023-01-03T07:38:13.254Z,4.05
2023-01-03T07:40:39.878Z,3.10
2023-01-03T07:43:25.341Z,2.75
2023-01-03T07:45:52.088Z,2.90
2023-01-03T07:48:18.867Z,3.45
2023-01-03T07:50:45.563Z,3.45
2023-01-03T07:53:17.143Z,3.40
2023-01-03T07:55:45.419Z,3.55
2023-01-03T07:58:12.342Z,3.70
2023-01-03T08:00:39.921Z,3.13
2023-01-03T08:03:10.764Z,3.78
2023-01-03T08:05:37.966Z,22.23
2023-01-03T08:08:05.123Z,4.13
2023-01-03T08:10:50.413Z,3.95
2023-01-03T08:13:19.946Z,4.82
2023-01-03T08:15:55.435Z,3.15
2023-01-03T08:18:27.461Z,3.40
2023-01-03T08:20:56.567Z,3.67
2023-01-03T08:23:24.544Z,3.95
2023-01-03T08:25:51.387Z,4.20
2023-01-03T08:28:18.745Z,4.13
2023-01-03T08:30:49.260Z,4.07
2023-01-03T08:33:18.870Z,3.63
2023-01-03T08:35:56.115Z,4.03
2023-01-03T08:38:28.821Z,4.25
2023-01-03T08:40:56.703Z,3.80
2023-01-03T08:43:23.649Z,4.18
2023-01-03T08:45:50.461Z,8.18
2023-01-03T08:48:21.203Z,4.75
2023-01-03T08:50:48.097Z,4.50
2023-01-03T08:53:14.817Z,5.65
2023-01-03T08:55:41.813Z,5.40
2023-01-03T08:58:11.414Z,5.35
2023-01-03T09:00:38.036Z,5.40
2023-01-03T09:03:05.074Z,4.47
2023-01-03T09:05:31.900Z,5.63
2023-01-03T09:07:58.595Z,5.20
2023-01-03T09:10:26.122Z,5.03
2023-01-03T09:12:52.818Z,5.75
2023-01-03T09:15:19.666Z,4.97
2023-01-03T09:17:47.381Z,4.47
2023-01-03T09:20:16.835Z,5.03
2023-01-03T09:22:43.540Z,4.88
2023-01-03T09:25:10.765Z,5.15
2023-01-03T09:27:37.497Z,4.18
2023-01-03T09:30:04.711Z,4.53
2023-01-03T09:32:31.498Z,4.45
2023-01-03T09:34:58.143Z,4.00
2023-01-03T09:37:24.820Z,4.95
2023-01-03T09:39:51.450Z,3.90
2023-01-03T09:42:41.532Z,3.28
2023-01-03T09:45:11.336Z,3.25
2023-01-03T09:47:39.453Z,4.18
2023-01-03T09:53:15.661Z,4.28
2023-01-03T09:56:16.399Z,4.07
2023-01-03T09:59:11.147Z,3.88
2023-01-03T10:02:17.574Z,3.53
2023-01-03T10:05:02.107Z,4.97
2023-01-03T10:07:46.398Z,3.83
2023-01-03T10:10:28.049Z,4.35
2023-01-03T10:13:20.276Z,3.60
2023-01-03T10:15:50.217Z,4.45
2023-01-03T10:18:38.303Z,4.13
2023-01-03T10:21:40.958Z,3.88
2023-01-03T10:24:26.060Z,4.22
2023-01-03T10:27:00.309Z,4.53
2023-01-03T10:29:27.466Z,3.38
2023-01-03T10:31:58.854Z,3.80
2023-01-03T10:34:25.546Z,4.03
2023-01-03T10:36:52.201Z,4.85
2023-01-03T10:39:31.198Z,4.57
2023-01-03T10:41:59.612Z,4.55
2023-01-03T10:44:31.815Z,5.00
2023-01-03T10:47:08.157Z,4.72
2023-01-03T10:49:34.887Z,5.20
2023-01-03T10:52:22.763Z,4.07
2023-01-03T10:55:03.190Z,4.80
2023-01-03T10:57:53.186Z,5.07
2023-01-03T11:00:32.097Z,4.28
2023-01-03T11:03:12.413Z,4.47
2023-01-03T11:05:41.192Z,4.68
2023-01-03T11:08:23.033Z,4.50
2023-01-03T11:11:00.025Z,4.72
2023-01-03T11:13:39.760Z,5.80
2023-01-03T11:16:17.866Z,5.10
2023-01-03T11:18:58.736Z,4.30
2023-01-03T11:22:12.759Z,3.55
2023-01-03T11:24:53.146Z,3.80
2023-01-03T11:27:41.333Z,3.08
2023-01-03T11:30:37.155Z,3.60
2023-01-03T11:33:13.251Z,4.55
2023-01-03T11:36:06.732Z,4.00
2023-01-03T11:38:57.944Z,4.15
2023-01-03T11:41:48.468Z,4.03
2023-01-03T11:44:22.278Z,4.20
2023-01-03T11:46:54.717Z,4.05
2023-01-03T11:49:26.409Z,4.18
2023-01-03T11:51:59.013Z,4.38
2023-01-03T11:55:03.500Z,4.63
2023-01-03T11:57:45.164Z,4.68
2023-01-03T12:00:30.835Z,5.82
2023-01-03T12:03:33.148Z,4.25
2023-01-03T12:06:29.095Z,4.47
2023-01-03T12:09:35.015Z,4.53
2023-01-03T12:12:22.650Z,4.22
2023-01-03T12:14:57.652Z,4.30
2023-01-03T12:17:47.130Z,4.20
2023-01-03T12:20:21.364Z,4.88
2023-01-03T12:23:15.794Z,4.07
2023-01-03T12:25:48.100Z,4.22
2023-01-03T12:28:22.405Z,4.05
2023-01-03T12:31:17.821Z,4.97
2023-01-03T12:34:12.336Z,4.70
2023-01-03T12:37:18.723Z,4.30
2023-01-03T12:39:55.024Z,4.65
2023-01-03T12:42:24.829Z,7.70
2023-01-03T12:45:03.327Z,4.97
2023-01-03T12:47:53.807Z,5.30
2023-01-03T12:50:42.975Z,5.03
2023-01-03T12:54:01.003Z,4.10
2023-01-03T12:56:59.202Z,4.88
2023-01-03T12:59:44.804Z,4.90
2023-01-03T13:02:43.799Z,4.93
2023-01-03T13:05:24.344Z,4.70
2023-01-03T13:08:02.836Z,5.10
2023-01-03T13:10:33.403Z,5.60
2023-01-03T13:13:01.829Z,4.53
2023-01-03T13:15:37.106Z,4.50
2023-01-03T13:18:21.613Z,4.45
2023-01-03T13:20:50.519Z,4.30
2023-01-03T13:23:34.037Z,4.28
2023-01-03T13:26:06.403Z,3.58
2023-01-03T13:28:37.041Z,3.53
2023-01-03T13:31:19.062Z,3.80
2023-01-03T13:33:48.837Z,3.65
2023-01-03T13:36:18.573Z,4.30
2023-01-03T13:38:45.547Z,3.58
2023-01-03T13:41:40.393Z,3.47
2023-01-03T13:44:15.560Z,3.30
2023-01-03T13:46:43.360Z,4.18
2023-01-03T13:49:19.088Z,4.07
2023-01-03T13:51:51.981Z,4.38
2023-01-03T13:54:18.615Z,26.23
2023-01-03T13:56:45.285Z,4.97
2023-01-03T13:59:14.785Z,4.15
2023-01-03T14:01:55.264Z,3.78
2023-01-03T14:04:40.616Z,4.50
2023-01-03T14:07:32.239Z,4.63
2023-01-03T14:10:11.629Z,4.97
2023-01-03T14:12:59.459Z,4.45
2023-01-03T14:15:27.251Z,4.70
2023-01-03T14:18:07.137Z,4.72
2023-01-03T14:20:36.487Z,4.63
2023-01-03T14:23:31.876Z,5.15
2023-01-03T14:26:06.624Z,4.93
2023-01-03T14:28:34.817Z,4.57
2023-01-03T14:31:07.661Z,4.55
2023-01-03T14:33:42.097Z,4.97
2023-01-03T14:36:14.595Z,5.03
2023-01-03T14:38:49.122Z,4.70
2023-01-03T14:41:37.845Z,4.03
2023-01-03T14:44:22.346Z,4.22
2023-01-03T14:46:55.988Z,3.80
2023-01-03T14:49:35.514Z,3.70
2023-01-03T14:52:21.110Z,4.80
2023-01-03T14:54:52.243Z,3.97
2023-01-03T14:57:22.223Z,5.50
2023-01-03T14:59:50.254Z,4.43
2023-01-03T15:02:18.346Z,4.53
2023-01-03T15:04:51.668Z,4.72
2023-01-03T15:07:48.469Z,5.15
2023-01-03T15:10:28.925Z,4.43
2023-01-03T15:13:00.716Z,4.43
2023-01-03T15:15:38.205Z,4.63
2023-01-03T15:18:09.711Z,4.80
2023-01-03T15:20:43.610Z,4.45
2023-01-03T15:23:40.659Z,5.05
2023-01-03T15:26:17.829Z,6.95
2023-01-03T15:28:52.197Z,4.15
2023-01-03T15:31:45.837Z,4.28
2023-01-03T15:34:14.331Z,5.47
2023-01-03T15:36:44.817Z,6.18
2023-01-03T15:39:21.746Z,5.93
2023-01-03T15:44:54.367Z,6.57
2023-01-03T15:47:23.937Z,6.70
2023-01-03T15:49:57.480Z,6.90
2023-01-03T15:52:24.217Z,6.32
2023-01-03T15:54:50.926Z,6.80
2023-01-03T15:57:21.071Z,7.30
2023-01-03T15:59:53.914Z,6.93
2023-01-03T16:02:23.087Z,8.85
2023-01-03T16:04:50.658Z,7.53
2023-01-03T16:07:17.391Z,6.45
2023-01-03T16:09:44.355Z,6.75
2023-01-03T16:12:21.265Z,6.72
2023-01-03T16:14:54.038Z,5.85
2023-01-03T16:17:25.361Z,5.45
2023-01-03T16:19:53.047Z,5.95
2023-01-03T16:22:37.028Z,6.97
2023-01-03T16:25:05.711Z,6.10
2023-01-03T16:27:32.447Z,7.30
2023-01-03T16:29:59.270Z,7.93
2023-01-03T16:32:28.908Z,7.90
2023-01-03T16:35:18.959Z,7.18
2023-01-03T16:37:45.880Z,7.20
2023-01-03T16:40:18.726Z,8.55
2023-01-03T16:42:45.371Z,43.70
2023-01-03T16:45:12.286Z,69.22
2023-01-03T16:47:39.847Z,30.73
2023-01-03T16:50:12.761Z,35.75
2023-01-03T16:52:41.709Z,20.50
2023-01-03T16:55:11.735Z,25.00
2023-01-03T16:57:38.365Z,17.87
2023-01-03T17:00:18.126Z,14.52
2023-01-03T17:02:45.049Z,11.88
2023-01-03T17:05:11.815Z,12.98
2023-01-03T17:07:38.830Z,9.02
2023-01-03T17:10:06.084Z,12.68
2023-01-03T17:12:33.342Z,14.57
2023-01-03T17:15:00.032Z,12.88
2023-01-03T17:17:26.707Z,10.65
2023-01-03T17:20:03.964Z,11.60
2023-01-03T17:22:31.980Z,12.32
2023-01-03T17:24:58.611Z,12.52
2023-01-03T17:27:31.889Z,12.18
2023-01-03T17:30:06.465Z,11.18
2023-01-03T17:32:34.060Z,11.75
2023-01-03T17:35:02.711Z,14.40
2023-01-03T17:37:29.367Z,14.05
2023-01-03T17:39:59.387Z,13.52
2023-01-03T17:42:28.766Z,11.83
2023-01-03T17:45:14.521Z,14.35
2023-01-03T17:48:01.481Z,13.80
2023-01-03T17:50:30.806Z,15.02
2023-01-03T17:52:58.646Z,14.27
2023-01-03T17:55:28.739Z,14.32
2023-01-03T17:57:56.682Z,14.87
2023-01-03T18:00:26.649Z,11.75
2023-01-03T18:02:54.662Z,14.90
2023-01-03T18:05:27.415Z,14.13
2023-01-03T18:07:57.007Z,12.85
2023-01-03T18:10:47.231Z,13.95
2023-01-03T18:13:20.043Z,16.02
2023-01-03T18:15:46.752Z,15.18
2023-01-03T18:18:18.273Z,15.73
2023-01-03T18:20:45.931Z,15.95
2023-01-03T18:23:26.111Z,16.33
2023-01-03T18:25:53.255Z,15.02
2023-01-03T18:28:24.488Z,15.02
2023-01-03T18:30:51.302Z,15.20
2023-01-03T18:33:17.937Z,13.35
2023-01-03T18:35:45.407Z,15.55
2023-01-03T18:38:26.280Z,17.13
2023-01-03T18:43:27.235Z,10.90
2023-01-03T18:45:54.496Z,11.80
2023-01-03T18:48:22.473Z,12.73
2023-01-03T18:50:57.928Z,13.30
2023-01-03T18:53:28.711Z,12.15
2023-01-03T18:55:55.747Z,12.30
2023-01-03T18:58:36.549Z,14.93
2023-01-03T19:01:04.146Z,12.15
2023-01-03T19:03:32.857Z,14.02
2023-01-03T19:06:01.174Z,17.02
2023-01-03T19:08:31.770Z,15.18
2023-01-03T19:11:05.225Z,16.38
2023-01-03T19:13:49.959Z,15.70
2023-01-03T19:16:29.663Z,14.57
2023-01-03T19:18:57.260Z,13.85
2023-01-03T19:21:26.479Z,14.52
2023-01-03T19:23:59.041Z,14.55
2023-01-03T19:26:36.499Z,13.60
2023-01-03T19:29:05.228Z,15.20
2023-01-03T19:31:40.996Z,15.88
2023-01-03T19:34:15.370Z,19.02
2023-01-03T19:36:42.143Z,15.82
2023-01-03T19:39:09.528Z,23.63
2023-01-03T19:42:02.840Z,15.43
2023-01-03T19:44:29.791Z,18.42
2023-01-03T19:46:56.598Z,15.68
2023-01-03T19:49:23.541Z,15.85
2023-01-03T19:51:50.270Z,14.55
2023-01-03T19:54:16.976Z,15.50
2023-01-03T19:56:43.981Z,14.65
2023-01-03T19:59:36.252Z,16.45
2023-01-03T20:02:25.331Z,16.55
2023-01-03T20:04:52.654Z,11.63
2023-01-03T20:07:19.367Z,14.68
2023-01-03T20:09:46.115Z,18.67
2023-01-03T20:12:15.289Z,17.30
2023-01-03T20:14:45.493Z,14.27
2023-01-03T20:17:20.992Z,17.25
2023-01-03T20:19:47.891Z,14.00
2023-01-03T20:22:37.176Z,11.25
2023-01-03T20:25:01.376Z,12.80
2023-01-03T20:27:28.773Z,10.93
2023-01-03T20:29:55.414Z,12.73
2023-01-03T20:32:24.662Z,13.82
2023-01-03T20:34:51.280Z,12.98
2023-01-03T20:37:19.829Z,26.73
2023-01-03T20:39:46.553Z,15.30
2023-01-03T20:42:24.878Z,13.57
2023-01-03T20:44:51.661Z,11.35
2023-01-03T20:47:23.478Z,12.85
2023-01-03T20:49:50.842Z,14.05
2023-01-03T20:52:18.089Z,14.63
2023-01-03T20:54:44.744Z,12.65
2023-01-03T20:57:16.167Z,13.50
2023-01-03T20:59:43.362Z,11.98
2023-01-03T21:02:13.199Z,13.40
2023-01-03T21:04:40.037Z,11.70
2023-01-03T21:07:25.985Z,11.95
2023-01-03T21:09:52.608Z,12.32
2023-01-03T21:12:19.271Z,12.43
2023-01-03T21:14:49.407Z,11.50
2023-01-03T21:17:16.113Z,14.48
2023-01-03T21:19:42.789Z,13.15
2023-01-03T21:22:20.041Z,14.65
2023-01-03T21:24:48.748Z,13.88
2023-01-03T21:27:18.970Z,11.35
2023-01-03T21:29:45.584Z,11.82
2023-01-03T21:32:12.591Z,10.75
2023-01-03T21:34:40.796Z,10.68
2023-01-03T21:37:09.567Z,12.05
2023-01-03T21:39:36.734Z,10.55
2023-01-03T21:42:23.187Z,12.05
2023-01-03T21:44:49.811Z,11.00
2023-01-03T21:47:16.453Z,12.57
2023-01-03T21:49:43.067Z,12.52
2023-01-03T21:52:09.852Z,11.25
2023-01-03T21:54:36.477Z,10.85
2023-01-03T21:57:03.388Z,13.70
2023-01-03T21:59:30.771Z,13.07
2023-01-03T22:02:16.287Z,11.50
2023-01-03T22:04:42.936Z,13.77
2023-01-03T22:07:09.586Z,12.65
2023-01-03T22:09:54.832Z,14.48
2023-01-03T22:12:21.528Z,11.27
2023-01-03T22:14:48.350Z,14.40
2023-01-03T22:17:16.472Z,13.40
2023-01-03T22:19:43.132Z,12.35
2023-01-03T22:22:09.788Z,12.05
2023-01-03T22:24:36.445Z,11.90
2023-01-03T22:27:03.128Z,11.82
2023-01-03T22:29:29.789Z,10.68
2023-01-03T22:31:56.533Z,11.57
2023-01-03T22:34:23.274Z,11.15
2023-01-03T22:36:49.965Z,11.02
2023-01-03T22:39:16.615Z,11.77
2023-01-03T22:41:43.248Z,12.98
2023-01-03T22:44:10.657Z,11.23
2023-01-03T22:46:37.364Z,10.82
2023-01-03T22:49:04.118Z,11.50
2023-01-03T22:51:30.774Z,11.32
2023-01-03T22:53:57.865Z,11.35
2023-01-03T22:56:24.515Z,11.65
2023-01-03T22:58:51.144Z,11.23
2023-01-03T23:01:20.425Z,11.82
2023-01-03T23:03:48.756Z,11.07
2023-01-03T23:06:17.871Z,10.43
2023-01-03T23:08:45.478Z,11.25
2023-01-03T23:11:34.694Z,10.25
2023-01-03T23:14:04.228Z,10.63
2023-01-03T23:16:32.227Z,9.60
2023-01-03T23:19:01.379Z,10.23
2023-01-03T23:21:28.020Z,9.32
2023-01-03T23:23:54.684Z,9.57
2023-01-03T23:26:21.337Z,8.55
2023-01-03T23:28:48.055Z,9.93
2023-01-03T23:31:14.807Z,8.43
2023-01-03T23:33:41.499Z,9.00
2023-01-03T23:36:10.678Z,10.30
2023-01-03T23:38:37.357Z,9.98
2023-01-03T23:41:09.300Z,9.40
2023-01-03T23:43:36.621Z,10.63
2023-01-03T23:46:04.337Z,9.38
2023-01-03T23:48:31.558Z,10.65
2023-01-03T23:51:02.910Z,9.98
2023-01-03T23:53:29.612Z,10.25
2023-01-03T23:55:56.778Z,10.52
2023-01-03T23:58:23.485Z,10.23
